sensor_id;sensor_type;location;lat;lon;timestamp;P1;durP1;ratioP1;P2;durP2;ratioP2
5295;SDS011;2670;42.720;23.336;2023-04-03T00:01:50;22.40;;;11.80;;
5295;SDS011;2670;42.720;23.336;2023-04-03T00:04:16;19.00;;;10.57;;
5295;SDS011;2670;42.720;23.336;2023-04-03T00:06:44;12.63;;;6.70;;
5295;SDS011;2670;42.720;23.336;2023-04-03T00:09:11;14.67;;;6.67;;
5295;SDS011;2670;42.720;23.336;2023-04-03T00:11:38;16.53;;;5.50;;
5295;SDS011;2670;42.720;23.336;2023-04-03T00:14:04;9.13;;;5.30;;
5295;SDS011;2670;42.720;23.336;2023-04-03T00:16:31;12.83;;;5.80;;
5295;SDS011;2670;42.720;23.336;2023-04-03T00:18:58;10.30;;;5.37;;
5295;SDS011;2670;42.720;23.336;2023-04-03T00:21:24;7.37;;;4.60;;
5295;SDS011;2670;42.720;23.336;2023-04-03T00:23:52;12.70;;;4.63;;
5295;SDS011;2670;42.720;23.336;2023-04-03T00:26:19;8.13;;;5.17;;
5295;SDS011;2670;42.720;23.336;2023-04-03T00:28:46;7.30;;;4.80;;
5295;SDS011;2670;42.720;23.336;2023-04-03T00:31:14;12.57;;;5.47;;
5295;SDS011;2670;42.720;23.336;2023-04-03T00:33:40;10.33;;;5.53;;
5295;SDS011;2670;42.720;23.336;2023-04-03T00:36:07;8.60;;;4.17;;
5295;SDS011;2670;42.720;23.336;2023-04-03T00:38:35;8.97;;;4.80;;
5295;SDS011;2670;42.720;23.336;2023-04-03T00:41:03;8.77;;;4.87;;
5295;SDS011;2670;42.720;23.336;2023-04-03T00:43:30;11.60;;;5.93;;
5295;SDS011;2670;42.720;23.336;2023-04-03T00:45:57;13.17;;;5.70;;
5295;SDS011;2670;42.720;23.336;2023-04-03T00:48:26;11.13;;;6.13;;
5295;SDS011;2670;42.720;23.336;2023-04-03T00:50:55;11.10;;;6.20;;
5295;SDS011;2670;42.720;23.336;2023-04-03T00:53:24;15.50;;;8.90;;
5295;SDS011;2670;42.720;23.336;2023-04-03T00:55:53;20.97;;;9.23;;
5295;SDS011;2670;42.720;23.336;2023-04-03T00:58:24;17.83;;;6.77;;
5295;SDS011;2670;42.720;23.336;2023-04-03T01:00:55;12.60;;;7.97;;
5295;SDS011;2670;42.720;23.336;2023-04-03T01:03:24;12.53;;;6.90;;
5295;SDS011;2670;42.720;23.336;2023-04-03T01:05:51;9.03;;;5.50;;
5295;SDS011;2670;42.720;23.336;2023-04-03T01:08:18;11.83;;;6.27;;
5295;SDS011;2670;42.720;23.336;2023-04-03T01:10:45;16.73;;;7.23;;
5295;SDS011;2670;42.720;23.336;2023-04-03T01:13:18;11.90;;;7.20;;
5295;SDS011;2670;42.720;23.336;2023-04-03T01:15:52;16.17;;;7.93;;
5295;SDS011;2670;42.720;23.336;2023-04-03T01:18:18;16.03;;;8.43;;
5295;SDS011;2670;42.720;23.336;2023-04-03T01:23:45;18.27;;;11.50;;
5295;SDS011;2670;42.720;23.336;2023-04-03T01:26:22;12.40;;;9.10;;
5295;SDS011;2670;42.720;23.336;2023-04-03T01:28:52;11.40;;;6.70;;
5295;SDS011;2670;42.720;23.336;2023-04-03T01:31:22;5.73;;;3.70;;
5295;SDS011;2670;42.720;23.336;2023-04-03T01:33:53;7.47;;;4.30;;
5295;SDS011;2670;42.720;23.336;2023-04-03T01:36:21;6.67;;;4.10;;
5295;SDS011;2670;42.720;23.336;2023-04-03T01:38:50;5.10;;;3.00;;
5295;SDS011;2670;42.720;23.336;2023-04-03T01:41:17;6.40;;;3.20;;
5295;SDS011;2670;42.720;23.336;2023-04-03T01:43:46;5.30;;;3.10;;
5295;SDS011;2670;42.720;23.336;2023-04-03T01:46:13;5.20;;;2.80;;
5295;SDS011;2670;42.720;23.336;2023-04-03T01:48:39;3.50;;;2.80;;
5295;SDS011;2670;42.720;23.336;2023-04-03T01:51:11;6.93;;;2.57;;
5295;SDS011;2670;42.720;23.336;2023-04-03T01:53:38;5.93;;;3.07;;
5295;SDS011;2670;42.720;23.336;2023-04-03T01:56:05;3.87;;;2.50;;
5295;SDS011;2670;42.720;23.336;2023-04-03T01:58:32;4.00;;;2.30;;
5295;SDS011;2670;42.720;23.336;2023-04-03T02:00:58;4.73;;;2.60;;
5295;SDS011;2670;42.720;23.336;2023-04-03T02:03:25;6.33;;;2.60;;
5295;SDS011;2670;42.720;23.336;2023-04-03T02:05:52;4.93;;;2.93;;
5295;SDS011;2670;42.720;23.336;2023-04-03T02:08:20;6.37;;;3.50;;
5295;SDS011;2670;42.720;23.336;2023-04-03T02:10:47;5.60;;;2.97;;
5295;SDS011;2670;42.720;23.336;2023-04-03T02:13:14;15.10;;;3.70;;
5295;SDS011;2670;42.720;23.336;2023-04-03T02:15:40;8.63;;;4.30;;
5295;SDS011;2670;42.720;23.336;2023-04-03T02:18:07;6.33;;;4.10;;
5295;SDS011;2670;42.720;23.336;2023-04-03T02:20:35;6.53;;;4.13;;
5295;SDS011;2670;42.720;23.336;2023-04-03T02:23:02;12.53;;;3.80;;
5295;SDS011;2670;42.720;23.336;2023-04-03T02:25:31;6.40;;;3.67;;
5295;SDS011;2670;42.720;23.336;2023-04-03T02:27:58;13.90;;;4.70;;
5295;SDS011;2670;42.720;23.336;2023-04-03T02:30:25;11.00;;;4.70;;
5295;SDS011;2670;42.720;23.336;2023-04-03T02:32:52;7.73;;;4.70;;
5295;SDS011;2670;42.720;23.336;2023-04-03T02:35:19;8.10;;;4.83;;
5295;SDS011;2670;42.720;23.336;2023-04-03T02:37:46;9.33;;;5.00;;
5295;SDS011;2670;42.720;23.336;2023-04-03T02:40:13;11.53;;;5.43;;
5295;SDS011;2670;42.720;23.336;2023-04-03T02:42:41;10.20;;;5.17;;
5295;SDS011;2670;42.720;23.336;2023-04-03T02:45:08;12.57;;;4.80;;
5295;SDS011;2670;42.720;23.336;2023-04-03T02:47:35;7.80;;;5.13;;
5295;SDS011;2670;42.720;23.336;2023-04-03T02:50:01;8.50;;;4.57;;
5295;SDS011;2670;42.720;23.336;2023-04-03T02:52:28;8.37;;;4.50;;
5295;SDS011;2670;42.720;23.336;2023-04-03T02:54:55;9.93;;;4.50;;
5295;SDS011;2670;42.720;23.336;2023-04-03T02:57:22;9.50;;;4.50;;
5295;SDS011;2670;42.720;23.336;2023-04-03T02:59:50;11.50;;;5.10;;
5295;SDS011;2670;42.720;23.336;2023-04-03T03:02:16;9.33;;;5.30;;
5295;SDS011;2670;42.720;23.336;2023-04-03T03:04:43;7.47;;;4.77;;
5295;SDS011;2670;42.720;23.336;2023-04-03T03:07:10;12.60;;;5.00;;
5295;SDS011;2670;42.720;23.336;2023-04-03T03:09:36;8.93;;;5.83;;
5295;SDS011;2670;42.720;23.336;2023-04-03T03:12:03;10.40;;;6.10;;
5295;SDS011;2670;42.720;23.336;2023-04-03T03:14:30;12.07;;;6.70;;
5295;SDS011;2670;42.720;23.336;2023-04-03T03:16:58;14.97;;;7.80;;
5295;SDS011;2670;42.720;23.336;2023-04-03T03:19:25;13.03;;;7.80;;
5295;SDS011;2670;42.720;23.336;2023-04-03T03:21:52;20.37;;;8.27;;
5295;SDS011;2670;42.720;23.336;2023-04-03T03:24:19;24.37;;;9.53;;
5295;SDS011;2670;42.720;23.336;2023-04-03T03:26:45;20.93;;;9.40;;
5295;SDS011;2670;42.720;23.336;2023-04-03T03:29:12;18.70;;;9.03;;
5295;SDS011;2670;42.720;23.336;2023-04-03T03:31:39;37.13;;;9.43;;
5295;SDS011;2670;42.720;23.336;2023-04-03T03:34:07;22.77;;;7.70;;
5295;SDS011;2670;42.720;23.336;2023-04-03T03:36:34;21.73;;;6.93;;
5295;SDS011;2670;42.720;23.336;2023-04-03T03:39:01;14.37;;;7.97;;
5295;SDS011;2670;42.720;23.336;2023-04-03T03:41:28;23.67;;;9.47;;
5295;SDS011;2670;42.720;23.336;2023-04-03T03:43:54;21.43;;;9.60;;
5295;SDS011;2670;42.720;23.336;2023-04-03T03:46:21;18.07;;;9.30;;
5295;SDS011;2670;42.720;23.336;2023-04-03T03:48:48;23.57;;;10.30;;
5295;SDS011;2670;42.720;23.336;2023-04-03T03:51:16;27.10;;;12.53;;
5295;SDS011;2670;42.720;23.336;2023-04-03T03:53:43;14.07;;;8.90;;
5295;SDS011;2670;42.720;23.336;2023-04-03T03:56:09;20.90;;;10.97;;
5295;SDS011;2670;42.720;23.336;2023-04-03T03:58:36;20.27;;;10.63;;
5295;SDS011;2670;42.720;23.336;2023-04-03T04:01:03;25.73;;;12.17;;
5295;SDS011;2670;42.720;23.336;2023-04-03T04:03:31;21.53;;;10.10;;
5295;SDS011;2670;42.720;23.336;2023-04-03T04:05:58;16.50;;;8.93;;
5295;SDS011;2670;42.720;23.336;2023-04-03T04:08:26;18.93;;;8.97;;
5295;SDS011;2670;42.720;23.336;2023-04-03T04:10:53;17.63;;;8.77;;
5295;SDS011;2670;42.720;23.336;2023-04-03T04:13:19;29.53;;;9.40;;
5295;SDS011;2670;42.720;23.336;2023-04-03T04:15:46;20.57;;;10.13;;
5295;SDS011;2670;42.720;23.336;2023-04-03T04:18:13;20.10;;;9.40;;
5295;SDS011;2670;42.720;23.336;2023-04-03T04:20:39;20.87;;;9.13;;
5295;SDS011;2670;42.720;23.336;2023-04-03T04:23:06;15.87;;;9.37;;
5295;SDS011;2670;42.720;23.336;2023-04-03T04:25:34;22.40;;;11.37;;
5295;SDS011;2670;42.720;23.336;2023-04-03T04:28:01;35.70;;;14.97;;
5295;SDS011;2670;42.720;23.336;2023-04-03T04:30:27;33.87;;;13.37;;
5295;SDS011;2670;42.720;23.336;2023-04-03T04:32:54;19.87;;;11.60;;
5295;SDS011;2670;42.720;23.336;2023-04-03T04:35:21;19.77;;;9.93;;
5295;SDS011;2670;42.720;23.336;2023-04-03T04:37:48;19.87;;;9.47;;
5295;SDS011;2670;42.720;23.336;2023-04-03T04:40:15;22.73;;;10.57;;
5295;SDS011;2670;42.720;23.336;2023-04-03T04:42:43;28.30;;;12.10;;
5295;SDS011;2670;42.720;23.336;2023-04-03T04:45:10;28.67;;;11.87;;
5295;SDS011;2670;42.720;23.336;2023-04-03T04:47:37;30.73;;;13.40;;
5295;SDS011;2670;42.720;23.336;2023-04-03T04:50:04;30.90;;;14.93;;
5295;SDS011;2670;42.720;23.336;2023-04-03T04:52:31;30.70;;;12.70;;
5295;SDS011;2670;42.720;23.336;2023-04-03T04:54:58;31.20;;;13.27;;
5295;SDS011;2670;42.720;23.336;2023-04-03T04:57:25;25.97;;;12.73;;
5295;SDS011;2670;42.720;23.336;2023-04-03T04:59:53;22.10;;;12.33;;
5295;SDS011;2670;42.720;23.336;2023-04-03T05:02:20;23.43;;;14.60;;
5295;SDS011;2670;42.720;23.336;2023-04-03T05:04:46;49.20;;;28.33;;
5295;SDS011;2670;42.720;23.336;2023-04-03T05:07:15;37.77;;;20.33;;
5295;SDS011;2670;42.720;23.336;2023-04-03T05:09:42;31.33;;;16.37;;
5295;SDS011;2670;42.720;23.336;2023-04-03T05:12:11;35.63;;;15.00;;
5295;SDS011;2670;42.720;23.336;2023-04-03T05:14:38;31.70;;;16.93;;
5295;SDS011;2670;42.720;23.336;2023-04-03T05:17:06;38.83;;;18.30;;
5295;SDS011;2670;42.720;23.336;2023-04-03T05:19:33;45.33;;;19.63;;
5295;SDS011;2670;42.720;23.336;2023-04-03T05:21:59;35.67;;;18.83;;
5295;SDS011;2670;42.720;23.336;2023-04-03T05:24:26;33.50;;;18.30;;
5295;SDS011;2670;42.720;23.336;2023-04-03T05:26:53;42.13;;;18.83;;
5295;SDS011;2670;42.720;23.336;2023-04-03T05:29:20;45.83;;;18.00;;
5295;SDS011;2670;42.720;23.336;2023-04-03T05:31:48;37.83;;;20.60;;
5295;SDS011;2670;42.720;23.336;2023-04-03T05:34:16;42.13;;;21.20;;
5295;SDS011;2670;42.720;23.336;2023-04-03T05:36:43;38.80;;;21.23;;
5295;SDS011;2670;42.720;23.336;2023-04-03T05:39:10;49.47;;;20.93;;
5295;SDS011;2670;42.720;23.336;2023-04-03T05:41:37;42.67;;;22.97;;
5295;SDS011;2670;42.720;23.336;2023-04-03T05:44:03;39.73;;;18.77;;
5295;SDS011;2670;42.720;23.336;2023-04-03T05:46:30;33.57;;;16.80;;
5295;SDS011;2670;42.720;23.336;2023-04-03T05:48:58;35.93;;;17.00;;
5295;SDS011;2670;42.720;23.336;2023-04-03T05:51:28;31.43;;;16.93;;
5295;SDS011;2670;42.720;23.336;2023-04-03T05:53:58;24.50;;;11.70;;
5295;SDS011;2670;42.720;23.336;2023-04-03T05:56:29;17.30;;;10.80;;
5295;SDS011;2670;42.720;23.336;2023-04-03T05:58:55;19.93;;;12.00;;
5295;SDS011;2670;42.720;23.336;2023-04-03T06:01:22;28.27;;;13.00;;
5295;SDS011;2670;42.720;23.336;2023-04-03T06:03:49;37.53;;;14.90;;
5295;SDS011;2670;42.720;23.336;2023-04-03T06:06:16;26.53;;;14.30;;
5295;SDS011;2670;42.720;23.336;2023-04-03T06:08:44;27.20;;;13.20;;
5295;SDS011;2670;42.720;23.336;2023-04-03T06:11:11;31.03;;;13.90;;
5295;SDS011;2670;42.720;23.336;2023-04-03T06:13:37;28.50;;;11.83;;
5295;SDS011;2670;42.720;23.336;2023-04-03T06:16:04;18.33;;;11.10;;
5295;SDS011;2670;42.720;23.336;2023-04-03T06:18:32;15.10;;;9.50;;
5295;SDS011;2670;42.720;23.336;2023-04-03T06:20:58;13.90;;;8.90;;
5295;SDS011;2670;42.720;23.336;2023-04-03T06:23:26;11.50;;;7.30;;
5295;SDS011;2670;42.720;23.336;2023-04-03T06:25:54;16.83;;;9.30;;
5295;SDS011;2670;42.720;23.336;2023-04-03T06:28:20;18.73;;;10.10;;
5295;SDS011;2670;42.720;23.336;2023-04-03T06:30:47;26.23;;;13.93;;
5295;SDS011;2670;42.720;23.336;2023-04-03T06:33:14;17.93;;;8.73;;
5295;SDS011;2670;42.720;23.336;2023-04-03T06:35:41;16.10;;;7.87;;
5295;SDS011;2670;42.720;23.336;2023-04-03T06:38:07;15.73;;;10.40;;
5295;SDS011;2670;42.720;23.336;2023-04-03T06:40:35;27.33;;;9.40;;
5295;SDS011;2670;42.720;23.336;2023-04-03T06:43:03;13.30;;;8.33;;
5295;SDS011;2670;42.720;23.336;2023-04-03T06:45:30;16.80;;;8.43;;
5295;SDS011;2670;42.720;23.336;2023-04-03T06:47:56;20.90;;;10.63;;
5295;SDS011;2670;42.720;23.336;2023-04-03T06:50:23;17.50;;;7.57;;
5295;SDS011;2670;42.720;23.336;2023-04-03T06:52:51;16.10;;;6.60;;
5295;SDS011;2670;42.720;23.336;2023-04-03T06:55:17;11.10;;;6.60;;
5295;SDS011;2670;42.720;23.336;2023-04-03T06:57:44;14.70;;;7.93;;
5295;SDS011;2670;42.720;23.336;2023-04-03T07:00:13;65.37;;;24.50;;
5295;SDS011;2670;42.720;23.336;2023-04-03T07:02:41;35.90;;;11.80;;
5295;SDS011;2670;42.720;23.336;2023-04-03T07:05:08;16.07;;;8.17;;
5295;SDS011;2670;42.720;23.336;2023-04-03T07:07:35;15.60;;;8.90;;
5295;SDS011;2670;42.720;23.336;2023-04-03T07:10:03;20.63;;;9.07;;
5295;SDS011;2670;42.720;23.336;2023-04-03T07:12:30;38.37;;;14.47;;
5295;SDS011;2670;42.720;23.336;2023-04-03T07:14:58;15.17;;;8.60;;
5295;SDS011;2670;42.720;23.336;2023-04-03T07:17:26;20.17;;;8.23;;
5295;SDS011;2670;42.720;23.336;2023-04-03T07:19:53;13.00;;;6.40;;
5295;SDS011;2670;42.720;23.336;2023-04-03T07:22:19;15.17;;;8.33;;
5295;SDS011;2670;42.720;23.336;2023-04-03T07:24:46;13.60;;;7.20;;
5295;SDS011;2670;42.720;23.336;2023-04-03T07:27:13;17.90;;;8.23;;
5295;SDS011;2670;42.720;23.336;2023-04-03T07:29:40;24.33;;;9.00;;
5295;SDS011;2670;42.720;23.336;2023-04-03T07:32:07;18.40;;;7.97;;
5295;SDS011;2670;42.720;23.336;2023-04-03T07:34:36;38.23;;;8.60;;
5295;SDS011;2670;42.720;23.336;2023-04-03T07:37:03;16.70;;;7.90;;
5295;SDS011;2670;42.720;23.336;2023-04-03T07:39:29;10.43;;;5.87;;
5295;SDS011;2670;42.720;23.336;2023-04-03T07:41:56;14.93;;;8.43;;
5295;SDS011;2670;42.720;23.336;2023-04-03T07:44:23;16.10;;;8.23;;
5295;SDS011;2670;42.720;23.336;2023-04-03T07:46:51;14.70;;;7.70;;
5295;SDS011;2670;42.720;23.336;2023-04-03T07:49:18;14.80;;;7.50;;
5295;SDS011;2670;42.720;23.336;2023-04-03T07:51:46;20.27;;;9.23;;
5295;SDS011;2670;42.720;23.336;2023-04-03T07:54:13;18.63;;;10.27;;
5295;SDS011;2670;42.720;23.336;2023-04-03T07:56:40;26.20;;;10.83;;
5295;SDS011;2670;42.720;23.336;2023-04-03T07:59:07;35.10;;;11.43;;
5295;SDS011;2670;42.720;23.336;2023-04-03T08:01:34;20.20;;;10.17;;
5295;SDS011;2670;42.720;23.336;2023-04-03T08:04:01;15.77;;;9.50;;
5295;SDS011;2670;42.720;23.336;2023-04-03T08:06:28;23.03;;;10.00;;
5295;SDS011;2670;42.720;23.336;2023-04-03T08:08:58;17.73;;;10.50;;
5295;SDS011;2670;42.720;23.336;2023-04-03T08:11:25;26.10;;;9.00;;
5295;SDS011;2670;42.720;23.336;2023-04-03T08:13:52;11.73;;;9.10;;
5295;SDS011;2670;42.720;23.336;2023-04-03T08:16:20;25.00;;;10.47;;
5295;SDS011;2670;42.720;23.336;2023-04-03T08:18:48;20.00;;;10.07;;
5295;SDS011;2670;42.720;23.336;2023-04-03T08:21:14;34.73;;;11.57;;
5295;SDS011;2670;42.720;23.336;2023-04-03T08:23:42;17.10;;;10.10;;
5295;SDS011;2670;42.720;23.336;2023-04-03T08:26:10;16.03;;;8.63;;
5295;SDS011;2670;42.720;23.336;2023-04-03T08:28:38;13.63;;;8.63;;
5295;SDS011;2670;42.720;23.336;2023-04-03T08:31:06;19.03;;;8.60;;
5295;SDS011;2670;42.720;23.336;2023-04-03T08:33:36;19.37;;;10.70;;
5295;SDS011;2670;42.720;23.336;2023-04-03T08:36:03;20.10;;;11.40;;
5295;SDS011;2670;42.720;23.336;2023-04-03T08:38:31;21.20;;;11.47;;
5295;SDS011;2670;42.720;23.336;2023-04-03T08:41:04;26.43;;;12.13;;
5295;SDS011;2670;42.720;23.336;2023-04-03T08:43:43;31.77;;;10.83;;
5295;SDS011;2670;42.720;23.336;2023-04-03T08:46:22;17.17;;;11.03;;
5295;SDS011;2670;42.720;23.336;2023-04-03T08:48:54;28.80;;;10.50;;
5295;SDS011;2670;42.720;23.336;2023-04-03T08:51:24;31.80;;;10.33;;
5295;SDS011;2670;42.720;23.336;2023-04-03T08:53:54;21.10;;;10.73;;
5295;SDS011;2670;42.720;23.336;2023-04-03T08:56:25;19.07;;;10.13;;
5295;SDS011;2670;42.720;23.336;2023-04-03T08:58:55;22.90;;;12.00;;
5295;SDS011;2670;42.720;23.336;2023-04-03T09:01:24;26.83;;;10.70;;
5295;SDS011;2670;42.720;23.336;2023-04-03T09:03:54;21.77;;;11.03;;
5295;SDS011;2670;42.720;23.336;2023-04-03T09:06:22;34.40;;;11.00;;
5295;SDS011;2670;42.720;23.336;2023-04-03T09:09:04;18.10;;;7.87;;
5295;SDS011;2670;42.720;23.336;2023-04-03T09:11:43;28.20;;;10.90;;
5295;SDS011;2670;42.720;23.336;2023-04-03T09:14:17;21.27;;;8.80;;
5295;SDS011;2670;42.720;23.336;2023-04-03T09:16:52;19.43;;;10.20;;
5295;SDS011;2670;42.720;23.336;2023-04-03T09:19:23;18.40;;;9.23;;
5295;SDS011;2670;42.720;23.336;2023-04-03T09:21:58;23.40;;;10.40;;
5295;SDS011;2670;42.720;23.336;2023-04-03T09:24:28;31.47;;;12.57;;
5295;SDS011;2670;42.720;23.336;2023-04-03T09:27:01;20.90;;;9.43;;
5295;SDS011;2670;42.720;23.336;2023-04-03T09:29:31;20.00;;;9.80;;
5295;SDS011;2670;42.720;23.336;2023-04-03T09:32:08;20.80;;;11.10;;
5295;SDS011;2670;42.720;23.336;2023-04-03T09:34:52;23.40;;;10.83;;
5295;SDS011;2670;42.720;23.336;2023-04-03T09:37:35;24.50;;;12.13;;
5295;SDS011;2670;42.720;23.336;2023-04-03T09:40:04;33.30;;;14.10;;
5295;SDS011;2670;42.720;23.336;2023-04-03T09:42:34;34.33;;;13.50;;
5295;SDS011;2670;42.720;23.336;2023-04-03T09:45:18;41.00;;;15.57;;
5295;SDS011;2670;42.720;23.336;2023-04-03T09:47:49;19.13;;;11.50;;
5295;SDS011;2670;42.720;23.336;2023-04-03T09:50:32;25.53;;;11.10;;
5295;SDS011;2670;42.720;23.336;2023-04-03T09:52:59;25.97;;;10.17;;
5295;SDS011;2670;42.720;23.336;2023-04-03T09:55:31;17.53;;;9.60;;
5295;SDS011;2670;42.720;23.336;2023-04-03T09:58:00;17.87;;;9.30;;
5295;SDS011;2670;42.720;23.336;2023-04-03T10:00:30;16.20;;;8.07;;
5295;SDS011;2670;42.720;23.336;2023-04-03T10:03:00;14.33;;;8.90;;
5295;SDS011;2670;42.720;23.336;2023-04-03T10:05:34;16.40;;;8.20;;
5295;SDS011;2670;42.720;23.336;2023-04-03T10:08:09;16.10;;;8.77;;
5295;SDS011;2670;42.720;23.336;2023-04-03T10:10:46;23.93;;;9.30;;
5295;SDS011;2670;42.720;23.336;2023-04-03T10:13:15;16.60;;;8.20;;
5295;SDS011;2670;42.720;23.336;2023-04-03T10:15:46;16.10;;;8.10;;
5295;SDS011;2670;42.720;23.336;2023-04-03T10:18:22;14.80;;;8.00;;
5295;SDS011;2670;42.720;23.336;2023-04-03T10:20:56;18.30;;;8.77;;
5295;SDS011;2670;42.720;23.336;2023-04-03T10:23:26;15.60;;;7.80;;
5295;SDS011;2670;42.720;23.336;2023-04-03T10:26:01;22.93;;;9.30;;
5295;SDS011;2670;42.720;23.336;2023-04-03T10:28:40;16.60;;;8.60;;
5295;SDS011;2670;42.720;23.336;2023-04-03T10:31:16;20.03;;;8.37;;
5295;SDS011;2670;42.720;23.336;2023-04-03T10:33:51;18.40;;;8.87;;
5295;SDS011;2670;42.720;23.336;2023-04-03T10:36:28;17.57;;;9.13;;
5295;SDS011;2670;42.720;23.336;2023-04-03T10:39:05;21.37;;;10.50;;
5295;SDS011;2670;42.720;23.336;2023-04-03T10:41:51;19.77;;;8.83;;
5295;SDS011;2670;42.720;23.336;2023-04-03T10:44:29;15.20;;;7.70;;
5295;SDS011;2670;42.720;23.336;2023-04-03T10:47:04;15.20;;;8.17;;
5295;SDS011;2670;42.720;23.336;2023-04-03T10:49:40;31.73;;;9.97;;
5295;SDS011;2670;42.720;23.336;2023-04-03T10:52:17;25.50;;;9.03;;
5295;SDS011;2670;42.720;23.336;2023-04-03T10:54:54;22.97;;;8.23;;
5295;SDS011;2670;42.720;23.336;2023-04-03T10:57:30;17.60;;;7.43;;
5295;SDS011;2670;42.720;23.336;2023-04-03T10:59:59;12.23;;;7.20;;
5295;SDS011;2670;42.720;23.336;2023-04-03T11:02:35;19.07;;;8.30;;
5295;SDS011;2670;42.720;23.336;2023-04-03T11:05:13;17.53;;;7.53;;
5295;SDS011;2670;42.720;23.336;2023-04-03T11:07:45;15.90;;;8.40;;
5295;SDS011;2670;42.720;23.336;2023-04-03T11:10:18;11.20;;;6.40;;
5295;SDS011;2670;42.720;23.336;2023-04-03T11:12:51;12.10;;;7.30;;
5295;SDS011;2670;42.720;23.336;2023-04-03T11:15:24;20.07;;;7.13;;
5295;SDS011;2670;42.720;23.336;2023-04-03T11:17:51;14.40;;;6.43;;
5295;SDS011;2670;42.720;23.336;2023-04-03T11:20:22;24.13;;;8.60;;
5295;SDS011;2670;42.720;23.336;2023-04-03T11:22:53;23.73;;;8.90;;
5295;SDS011;2670;42.720;23.336;2023-04-03T11:25:25;12.70;;;7.00;;
5295;SDS011;2670;42.720;23.336;2023-04-03T11:27:56;10.40;;;6.50;;
5295;SDS011;2670;42.720;23.336;2023-04-03T11:30:27;6.57;;;5.10;;
5295;SDS011;2670;42.720;23.336;2023-04-03T11:33:03;7.03;;;5.40;;
5295;SDS011;2670;42.720;23.336;2023-04-03T11:35:42;11.37;;;7.37;;
5295;SDS011;2670;42.720;23.336;2023-04-03T11:38:10;14.00;;;6.33;;
5295;SDS011;2670;42.720;23.336;2023-04-03T11:40:45;8.03;;;5.33;;
5295;SDS011;2670;42.720;23.336;2023-04-03T11:43:19;11.07;;;5.00;;
5295;SDS011;2670;42.720;23.336;2023-04-03T11:45:52;11.20;;;5.30;;
5295;SDS011;2670;42.720;23.336;2023-04-03T11:54:34;15.07;;;5.60;;
5295;SDS011;2670;42.720;23.336;2023-04-03T12:12:30;8.83;;;6.33;;
5295;SDS011;2670;42.720;23.336;2023-04-03T12:15:25;9.20;;;6.33;;
5295;SDS011;2670;42.720;23.336;2023-04-03T12:21:17;9.60;;;5.30;;
5295;SDS011;2670;42.720;23.336;2023-04-03T12:24:03;10.87;;;5.80;;
5295;SDS011;2670;42.720;23.336;2023-04-03T12:26:32;10.03;;;5.10;;
5295;SDS011;2670;42.720;23.336;2023-04-03T12:29:10;16.43;;;7.13;;
5295;SDS011;2670;42.720;23.336;2023-04-03T12:31:44;8.23;;;6.23;;
5295;SDS011;2670;42.720;23.336;2023-04-03T12:34:24;7.33;;;5.23;;
5295;SDS011;2670;42.720;23.336;2023-04-03T12:37:05;13.40;;;5.60;;
5295;SDS011;2670;42.720;23.336;2023-04-03T12:39:58;10.43;;;5.33;;
5295;SDS011;2670;42.720;23.336;2023-04-03T12:42:39;11.20;;;5.43;;
5295;SDS011;2670;42.720;23.336;2023-04-03T12:45:38;9.43;;;5.40;;
5295;SDS011;2670;42.720;23.336;2023-04-03T12:48:12;12.80;;;6.30;;
5295;SDS011;2670;42.720;23.336;2023-04-03T12:50:41;7.20;;;4.90;;
5295;SDS011;2670;42.720;23.336;2023-04-03T12:53:13;7.70;;;5.23;;
5295;SDS011;2670;42.720;23.336;2023-04-03T12:55:44;14.10;;;6.40;;
5295;SDS011;2670;42.720;23.336;2023-04-03T12:58:14;8.73;;;5.10;;
5295;SDS011;2670;42.720;23.336;2023-04-03T13:00:43;5.43;;;3.90;;
5295;SDS011;2670;42.720;23.336;2023-04-03T13:03:19;8.07;;;4.63;;
5295;SDS011;2670;42.720;23.336;2023-04-03T13:05:49;12.80;;;5.80;;
5295;SDS011;2670;42.720;23.336;2023-04-03T13:08:18;24.23;;;8.27;;
5295;SDS011;2670;42.720;23.336;2023-04-03T13:10:49;34.27;;;10.30;;
5295;SDS011;2670;42.720;23.336;2023-04-03T13:13:20;34.23;;;9.67;;
5295;SDS011;2670;42.720;23.336;2023-04-03T13:15:48;40.63;;;8.57;;
5295;SDS011;2670;42.720;23.336;2023-04-03T13:18:23;17.50;;;8.40;;
5295;SDS011;2670;42.720;23.336;2023-04-03T13:20:51;25.10;;;10.10;;
5295;SDS011;2670;42.720;23.336;2023-04-03T13:23:22;52.33;;;12.93;;
5295;SDS011;2670;42.720;23.336;2023-04-03T13:25:49;28.87;;;11.30;;
5295;SDS011;2670;42.720;23.336;2023-04-03T13:28:18;65.20;;;14.50;;
5295;SDS011;2670;42.720;23.336;2023-04-03T13:30:57;41.67;;;11.93;;
5295;SDS011;2670;42.720;23.336;2023-04-03T13:33:29;23.90;;;9.07;;
5295;SDS011;2670;42.720;23.336;2023-04-03T13:36:00;19.27;;;7.47;;
5295;SDS011;2670;42.720;23.336;2023-04-03T13:38:31;22.43;;;8.00;;
5295;SDS011;2670;42.720;23.336;2023-04-03T13:41:00;11.40;;;7.40;;
5295;SDS011;2670;42.720;23.336;2023-04-03T13:43:30;18.30;;;7.10;;
5295;SDS011;2670;42.720;23.336;2023-04-03T13:45:59;15.47;;;7.47;;
5295;SDS011;2670;42.720;23.336;2023-04-03T13:48:34;21.33;;;9.30;;
5295;SDS011;2670;42.720;23.336;2023-04-03T13:51:03;16.80;;;7.77;;
5295;SDS011;2670;42.720;23.336;2023-04-03T13:53:40;18.13;;;9.20;;
5295;SDS011;2670;42.720;23.336;2023-04-03T13:56:13;23.00;;;11.30;;
5295;SDS011;2670;42.720;23.336;2023-04-03T13:58:55;17.17;;;10.83;;
5295;SDS011;2670;42.720;23.336;2023-04-03T14:01:42;14.00;;;8.27;;
5295;SDS011;2670;42.720;23.336;2023-04-03T14:04:12;15.60;;;8.20;;
5295;SDS011;2670;42.720;23.336;2023-04-03T14:06:42;9.43;;;5.87;;
5295;SDS011;2670;42.720;23.336;2023-04-03T14:09:10;10.33;;;6.50;;
5295;SDS011;2670;42.720;23.336;2023-04-03T14:11:38;9.37;;;5.50;;
5295;SDS011;2670;42.720;23.336;2023-04-03T14:14:09;9.77;;;5.23;;
5295;SDS011;2670;42.720;23.336;2023-04-03T14:16:40;7.37;;;5.20;;
5295;SDS011;2670;42.720;23.336;2023-04-03T14:19:14;7.83;;;5.23;;
5295;SDS011;2670;42.720;23.336;2023-04-03T14:21:45;7.50;;;5.03;;
5295;SDS011;2670;42.720;23.336;2023-04-03T14:24:14;8.47;;;5.33;;
5295;SDS011;2670;42.720;23.336;2023-04-03T14:26:41;11.40;;;4.70;;
5295;SDS011;2670;42.720;23.336;2023-04-03T14:29:09;5.67;;;4.93;;
5295;SDS011;2670;42.720;23.336;2023-04-03T14:31:37;13.90;;;10.13;;
5295;SDS011;2670;42.720;23.336;2023-04-03T14:34:05;9.87;;;7.60;;
5295;SDS011;2670;42.720;23.336;2023-04-03T14:36:32;13.33;;;8.53;;
5295;SDS011;2670;42.720;23.336;2023-04-03T14:38:59;11.70;;;8.33;;
5295;SDS011;2670;42.720;23.336;2023-04-03T14:41:28;11.53;;;7.33;;
5295;SDS011;2670;42.720;23.336;2023-04-03T14:43:55;9.13;;;5.90;;
5295;SDS011;2670;42.720;23.336;2023-04-03T14:46:24;8.30;;;4.27;;
5295;SDS011;2670;42.720;23.336;2023-04-03T14:48:55;8.50;;;5.70;;
5295;SDS011;2670;42.720;23.336;2023-04-03T14:51:25;8.43;;;5.03;;
5295;SDS011;2670;42.720;23.336;2023-04-03T14:53:53;6.93;;;5.23;;
5295;SDS011;2670;42.720;23.336;2023-04-03T14:56:21;7.17;;;5.70;;
5295;SDS011;2670;42.720;23.336;2023-04-03T14:58:53;9.87;;;7.20;;
5295;SDS011;2670;42.720;23.336;2023-04-03T15:01:21;12.60;;;5.87;;
5295;SDS011;2670;42.720;23.336;2023-04-03T15:03:48;9.30;;;5.63;;
5295;SDS011;2670;42.720;23.336;2023-04-03T15:06:15;8.10;;;6.27;;
5295;SDS011;2670;42.720;23.336;2023-04-03T15:08:43;10.83;;;7.10;;
5295;SDS011;2670;42.720;23.336;2023-04-03T15:11:12;11.63;;;7.43;;
5295;SDS011;2670;42.720;23.336;2023-04-03T15:13:39;8.83;;;6.57;;
5295;SDS011;2670;42.720;23.336;2023-04-03T15:16:10;17.53;;;7.30;;
5295;SDS011;2670;42.720;23.336;2023-04-03T15:18:41;10.03;;;6.30;;
5295;SDS011;2670;42.720;23.336;2023-04-03T15:21:08;11.00;;;6.90;;
5295;SDS011;2670;42.720;23.336;2023-04-03T15:23:35;13.47;;;8.57;;
5295;SDS011;2670;42.720;23.336;2023-04-03T15:26:02;13.17;;;8.27;;
5295;SDS011;2670;42.720;23.336;2023-04-03T15:28:30;13.43;;;8.97;;